Time;durP1;ratioP1;P1;durP2;ratioP2;P2;SDS_P1;SDS_P2;PMS_P1;PMS_P2;Temp;Humidity;BMP_temperature;BMP_pressure;BME280_temperature;BME280_humidity;BME280_pressure;Samples;Min_cycle;Max_cycle;Signal;HPM_P1;HPM_P2
2021/09/30 00:00:13;;;;;;;2.05;1.77;;;;;;;-145.42;100.00;56955.94;2543391;36;2004902;-43
2021/09/30 00:03:39;;;;;;;3.35;1.85;;;;;;;-145.42;100.00;56955.94;2543438;31;2005109;-47
2021/09/30 00:07:07;;;;;;;2.38;1.95;;;;;;;-145.42;100.00;56955.94;2544688;31;2004911;-52
2021/09/30 00:10:34;;;;;;;2.80;2.10;;;;;;;-145.42;100.00;56955.94;2544408;31;2004402;-46
2021/09/30 00:14:09;;;;;;;3.13;2.22;;;;;;;-145.42;100.00;56955.94;2545416;31;2004973;-46
2021/09/30 00:32:34;;;;;;;3.72;2.38;;;;;;;-145.42;100.00;56955.94;2543812;36;2004965;-45
2021/09/30 00:54:37;;;;;;;;;;;;;;;-145.42;100.00;56955.94;2544580;31;2004833;-56
2021/09/30 02:24:55;;;;;;;3.75;1.70;;;;;;;-145.42;100.00;56955.94;2543929;31;2005084;-49
2021/09/30 02:58:31;;;;;;;4.30;2.22;;;;;;;-145.42;100.00;56955.94;2508753;31;2005177;-48
2021/09/30 03:02:02;;;;;;;5.35;2.63;;;;;;;-145.42;100.00;56955.94;2544187;31;2005192;-49
2021/09/30 03:05:30;;;;;;;3.00;2.20;;;;;;;-145.42;100.00;56955.94;2543083;36;2004996;-49
2021/09/30 03:08:58;;;;;;;4.10;2.17;;;;;;;-145.42;100.00;56955.94;2545014;31;2005276;-47
2021/09/30 03:12:29;;;;;;;4.20;2.40;;;;;;;-145.42;100.00;56955.94;2543944;31;2004293;-46
2021/09/30 03:16:03;;;;;;;4.20;2.13;;;;;;;-145.42;100.00;56955.94;2506796;36;2005265;-50
2021/09/30 03:19:49;;;;;;;3.85;2.47;;;;;;;-145.42;100.00;56955.94;2543962;31;2005009;-46
2021/09/30 03:23:18;;;;;;;4.55;2.10;;;;;;;-145.42;100.00;56955.94;2544381;31;2004391;-48
2021/09/30 03:26:49;;;;;;;3.05;2.13;;;;;;;-145.42;100.00;56955.94;2543761;31;2004750;-51
2021/09/30 03:30:15;;;;;;;3.85;2.13;;;;;;;-145.42;100.00;56955.94;2543344;36;2004734;-49
2021/09/30 03:33:41;;;;;;;2.25;2.00;;;;;;;-145.42;100.00;56955.94;2543285;31;2004969;-47
2021/09/30 03:37:08;;;;;;;3.17;2.03;;;;;;;-145.42;100.00;56955.94;2543599;31;2004973;-46
2021/09/30 03:40:34;;;;;;;4.55;2.00;;;;;;;-145.42;100.00;56955.94;2542877;36;2004371;-46
2021/09/30 03:44:00;;;;;;;3.28;2.35;;;;;;;-145.42;100.00;56955.94;2542850;36;2005110;-43
2021/09/30 03:47:26;;;;;;;2.22;2.03;;;;;;;-145.42;100.00;56955.94;2544406;31;2005984;-48
2021/09/30 03:54:51;;;;;;;4.22;2.42;;;;;;;-145.42;100.00;56955.94;2507799;36;2005924;-48
2021/09/30 04:02:02;;;;;;;4.60;2.00;;;;;;;-145.42;100.00;56955.94;2507638;36;2005079;-50
2021/09/30 04:05:33;;;;;;;2.60;2.05;;;;;;;-145.42;100.00;56955.94;2544429;31;2005179;-49
2021/09/30 04:08:58;;;;;;;5.60;2.42;;;;;;;-145.42;100.00;56955.94;2544709;31;2004732;-45
2021/09/30 04:12:24;;;;;;;4.43;2.47;;;;;;;-145.42;100.00;56955.94;2543906;36;2004915;-46
2021/09/30 04:15:51;;;;;;;5.28;2.45;;;;;;;-145.42;100.00;56955.94;2543750;36;2005280;-52
2021/09/30 04:19:17;;;;;;;4.50;2.42;;;;;;;-145.42;100.00;56955.94;2544043;36;2005062;-48
2021/09/30 04:22:44;;;;;;;6.25;2.50;;;;;;;-145.42;100.00;56955.94;2544480;31;2004857;-46
2021/09/30 04:26:11;;;;;;;4.22;2.38;;;;;;;-145.42;100.00;56955.94;2544117;31;2005453;-47
2021/09/30 04:29:36;;;;;;;4.53;2.40;;;;;;;-145.42;100.00;56955.94;2544345;31;2004968;-52
2021/09/30 04:33:02;;;;;;;3.05;2.45;;;;;;;-145.42;100.00;56955.94;2543781;36;2004387;-49
2021/09/30 04:36:28;;;;;;;4.25;2.47;;;;;;;-145.42;100.00;56955.94;2543798;36;2005086;-48
2021/09/30 04:39:54;;;;;;;3.80;2.08;;;;;;;-145.42;100.00;56955.94;2543860;36;2004851;-48
2021/09/30 04:43:20;;;;;;;5.50;2.90;;;;;;;-145.42;100.00;56955.94;2543516;36;2004785;-49
2021/09/30 04:46:45;;;;;;;3.65;2.25;;;;;;;-145.42;100.00;56955.94;2543882;31;2004952;-46
2021/09/30 04:50:11;;;;;;;3.22;2.05;;;;;;;-145.42;100.00;56955.94;2543710;31;2004907;-49
2021/09/30 04:53:37;;;;;;;3.33;2.40;;;;;;;-145.42;100.00;56955.94;2544348;31;2004845;-48
2021/09/30 04:57:04;;;;;;;3.05;2.10;;;;;;;-145.42;100.00;56955.94;2543756;36;2004442;-49
2021/09/30 05:00:29;;;;;;;3.20;2.05;;;;;;;-145.42;100.00;56955.94;2543444;36;2004787;-52
2021/09/30 05:03:55;;;;;;;7.32;2.75;;;;;;;-145.42;100.00;56955.94;2543666;36;2005076;-49
2021/09/30 05:07:21;;;;;;;4.80;3.00;;;;;;;-145.42;100.00;56955.94;2543276;36;2005392;-49
2021/09/30 05:10:48;;;;;;;4.75;1.88;;;;;;;-145.42;100.00;56955.94;2543660;31;2004406;-48
2021/09/30 05:14:14;;;;;;;4.78;2.38;;;;;;;-145.42;100.00;56955.94;2544379;36;2005021;-53
2021/09/30 05:17:40;;;;;;;3.63;2.05;;;;;;;-145.42;100.00;56955.94;2547465;31;2004245;-51
2021/09/30 05:21:06;;;;;;;2.65;2.20;;;;;;;-145.42;100.00;56955.94;2545517;36;2004839;-49
2021/09/30 05:24:32;;;;;;;4.32;2.17;;;;;;;-145.42;100.00;56955.94;2544072;36;2004779;-54
2021/09/30 05:27:58;;;;;;;6.78;2.10;;;;;;;-145.42;100.00;56955.94;2543921;31;2004366;-49
2021/09/30 05:31:24;;;;;;;6.35;2.63;;;;;;;-145.42;100.00;56955.94;2579778;36;2004395;-47
2021/09/30 05:34:50;;;;;;;2.10;1.85;;;;;;;-145.42;100.00;56955.94;2543394;36;2005026;-46
2021/09/30 05:38:15;;;;;;;2.90;1.80;;;;;;;-145.42;100.00;56955.94;2543450;31;2005041;-51
2021/09/30 05:41:41;;;;;;;3.40;1.63;;;;;;;-145.42;100.00;56955.94;2543976;31;2005609;-49
2021/09/30 05:45:08;;;;;;;3.33;2.20;;;;;;;-145.42;100.00;56955.94;2543430;36;2004781;-50
2021/09/30 05:48:34;;;;;;;2.97;1.70;;;;;;;-145.42;100.00;56955.94;2543345;36;2004393;-47
2021/09/30 05:52:01;;;;;;;4.38;1.98;;;;;;;-145.42;100.00;56955.94;2543271;36;2005351;-47
2021/09/30 05:55:31;;;;;;;6.50;1.80;;;;;;;-145.42;100.00;56955.94;2543269;31;2005143;-52
2021/09/30 05:58:57;;;;;;;3.67;1.42;;;;;;;-145.42;100.00;56955.94;2543297;36;2004966;-50
2021/09/30 06:13:40;;;;;;;3.42;1.40;;;;;;;-145.42;100.00;56955.94;2543223;36;2004693;-49
2021/09/30 06:17:06;;;;;;;5.47;1.30;;;;;;;-145.42;100.00;56955.94;2506821;36;2005105;-48
2021/09/30 06:20:32;;;;;;;3.58;1.58;;;;;;;-145.42;100.00;56955.94;2544239;31;2004764;-51
2021/09/30 06:23:58;;;;;;;2.47;1.10;;;;;;;-145.42;100.00;56955.94;2543331;31;2005870;-47
2021/09/30 06:27:23;;;;;;;4.18;1.50;;;;;;;-145.42;100.00;56955.94;2579409;31;2004376;-49
2021/09/30 06:30:49;;;;;;;2.72;1.63;;;;;;;-145.42;100.00;56955.94;2543521;36;2004900;-48
2021/09/30 06:34:15;;;;;;;2.75;1.40;;;;;;;-145.42;100.00;56955.94;2543043;31;2004815;-53
2021/09/30 06:37:41;;;;;;;4.68;1.73;;;;;;;-145.42;100.00;56955.94;2542812;31;2004581;-48
2021/09/30 06:41:11;;;;;;;3.28;1.20;;;;;;;-145.42;100.00;56955.94;2543015;36;2005109;-49
2021/09/30 06:44:38;;;;;;;2.03;1.40;;;;;;;-145.42;100.00;56955.94;2543478;31;2005011;-49
2021/09/30 06:48:04;;;;;;;4.20;1.50;;;;;;;-145.42;100.00;56955.94;2542408;36;2004398;-50
2021/09/30 06:51:32;;;;;;;2.85;1.75;;;;;;;-145.42;100.00;56955.94;2543589;31;2005089;-51
2021/09/30 06:55:02;;;;;;;1.92;1.40;;;;;;;-145.42;100.00;56955.94;2542856;36;2004902;-51
2021/09/30 06:58:28;;;;;;;4.80;1.60;;;;;;;-145.42;100.00;56955.94;2506538;36;2005194;-51
2021/09/30 07:01:54;;;;;;;3.58;1.25;;;;;;;-145.42;100.00;56955.94;2580309;31;2005407;-49
2021/09/30 07:05:20;;;;;;;2.45;1.27;;;;;;;-145.42;100.00;56955.94;2543522;31;2005625;-47
2021/09/30 07:08:45;;;;;;;4.20;1.45;;;;;;;-145.42;100.00;56955.94;2542252;36;2004557;-50
2021/09/30 07:12:11;;;;;;;4.47;1.65;;;;;;;-145.42;100.00;56955.94;2542989;36;2005068;-47
2021/09/30 07:15:40;;;;;;;2.33;1.08;;;;;;;-145.42;100.00;56955.94;2543470;31;2004944;-48
2021/09/30 07:19:14;;;;;;;4.60;1.13;;;;;;;-145.42;100.00;56955.94;2542606;36;2004901;-51
2021/09/30 07:22:39;;;;;;;3.95;1.35;;;;;;;-145.42;100.00;56955.94;2544989;31;2004954;-48
2021/09/30 07:26:09;;;;;;;4.10;1.10;;;;;;;-145.42;100.00;56955.94;2542329;36;2004974;-46
2021/09/30 07:29:35;;;;;;;4.63;1.42;;;;;;;-145.42;100.00;56955.94;2543355;31;2004421;-52
2021/09/30 07:33:05;;;;;;;3.08;1.20;;;;;;;-145.42;100.00;56955.94;2543887;31;2004968;-47
2021/09/30 07:36:32;;;;;;;5.63;1.30;;;;;;;-145.42;100.00;56955.94;2542865;31;2004415;-49
2021/09/30 07:39:57;;;;;;;3.35;1.10;;;;;;;-145.42;100.00;56955.94;2543174;36;2004813;-49
2021/09/30 07:43:23;;;;;;;3.22;1.58;;;;;;;-145.42;100.00;56955.94;2542855;36;2004263;-47
2021/09/30 07:46:49;;;;;;;4.53;1.08;;;;;;;-145.42;100.00;56955.94;2542648;36;2004938;-45
2021/09/30 07:50:16;;;;;;;4.20;1.10;;;;;;;-145.42;100.00;56955.94;2542665;31;2004754;-44
2021/09/30 07:53:43;;;;;;;2.28;0.82;;;;;;;-145.42;100.00;56955.94;2541724;31;2005081;-46
2021/09/30 07:57:09;;;;;;;4.13;0.80;;;;;;;-145.42;100.00;56955.94;2542361;31;2005590;-47
2021/09/30 08:00:40;;;;;;;2.60;0.93;;;;;;;-145.42;100.00;56955.94;2542797;31;2004970;-47
2021/09/30 08:04:07;;;;;;;2.70;1.02;;;;;;;-145.42;100.00;56955.94;2541602;36;2005376;-50
2021/09/30 08:07:33;;;;;;;1.42;0.85;;;;;;;-145.42;100.00;56955.94;2542438;31;2004932;-46
2021/09/30 08:10:59;;;;;;;3.03;1.52;;;;;;;-145.42;100.00;56955.94;2542191;36;2004984;-46
2021/09/30 08:14:26;;;;;;;5.45;1.23;;;;;;;-145.42;100.00;56955.94;2577804;36;2004390;-47
2021/09/30 08:17:52;;;;;;;2.97;0.90;;;;;;;-145.42;100.00;56955.94;2542564;36;2004256;-47
2021/09/30 08:21:20;;;;;;;3.10;0.90;;;;;;;-145.42;100.00;56955.94;2542966;36;2004984;-46
2021/09/30 08:24:45;;;;;;;2.53;0.88;;;;;;;-145.42;100.00;56955.94;2544190;31;2004865;-45
2021/09/30 08:28:11;;;;;;;1.25;0.75;;;;;;;-145.42;100.00;56955.94;2542898;36;2004934;-48
2021/09/30 08:31:37;;;;;;;3.50;0.82;;;;;;;-145.42;100.00;56955.94;2543494;36;2004955;-45
2021/09/30 08:35:04;;;;;;;4.97;1.00;;;;;;;-145.42;100.00;56955.94;2543804;31;2005215;-52
2021/09/30 08:38:30;;;;;;;3.38;0.88;;;;;;;-145.42;100.00;56955.94;2543734;31;2005160;-45
2021/09/30 08:41:56;;;;;;;3.35;0.85;;;;;;;-145.42;100.00;56955.94;2579952;31;2004420;-45
2021/09/30 08:45:22;;;;;;;2.88;0.90;;;;;;;-145.42;100.00;56955.94;2543774;31;2004187;-48
2021/09/30 08:48:56;;;;;;;5.55;1.45;;;;;;;-145.42;100.00;56955.94;2543763;31;2004855;-47
2021/09/30 08:52:22;;;;;;;2.33;0.90;;;;;;;-145.42;100.00;56955.94;2543307;36;2005030;-48
2021/09/30 08:55:48;;;;;;;4.32;1.00;;;;;;;-145.42;100.00;56955.94;2545111;31;2004923;-45
2021/09/30 08:59:39;;;;;;;4.53;0.90;;;;;;;-145.42;100.00;56955.94;2543392;36;2004770;-45
2021/09/30 09:03:08;;;;;;;1.92;0.88;;;;;;;-145.42;100.00;56955.94;2508178;31;2004810;-46
2021/09/30 09:06:35;;;;;;;2.80;0.82;;;;;;;-145.42;100.00;56955.94;2543454;31;2004968;-45
2021/09/30 09:10:39;;;;;;;2.78;0.88;;;;;;;-145.42;100.00;56955.94;2543441;36;2004374;-45
2021/09/30 09:14:12;;;;;;;1.90;0.70;;;;;;;-145.42;100.00;56955.94;2506208;36;2005234;-50
2021/09/30 09:17:40;;;;;;;3.40;1.15;;;;;;;-145.42;100.00;56955.94;2544669;31;2005621;-44
2021/09/30 09:21:15;;;;;;;2.88;0.82;;;;;;;-145.42;100.00;56955.94;2543978;36;2004940;-44
2021/09/30 09:24:57;;;;;;;4.63;1.08;;;;;;;-145.42;100.00;56955.94;2543608;31;2005193;-47
2021/09/30 09:28:24;;;;;;;8.10;1.50;;;;;;;-145.42;100.00;56955.94;2543694;31;2005042;-47
2021/09/30 09:31:51;;;;;;;3.38;0.85;;;;;;;-145.42;100.00;56955.94;2543526;36;2004949;-48
2021/09/30 09:35:27;;;;;;;4.07;0.83;;;;;;;-145.42;100.00;56955.94;2543699;31;2004296;-43
2021/09/30 09:39:02;;;;;;;4.10;0.82;;;;;;;-145.42;100.00;56955.94;2544434;31;2004207;-49
2021/09/30 09:42:31;;;;;;;4.43;1.25;;;;;;;-145.42;100.00;56955.94;2507434;36;2005211;-46
2021/09/30 09:46:05;;;;;;;3.00;1.15;;;;;;;-145.42;100.00;56955.94;2508279;31;2005113;-48
2021/09/30 13:41:42;;;;;;;3.65;0.90;;;;;;;-145.42;100.00;56955.94;2616621;36;20067;-48
2021/09/30 13:45:10;;;;;;;3.78;0.88;;;;;;;-145.42;100.00;56955.94;2543428;31;2004252;-49
2021/09/30 13:48:36;;;;;;;4.95;0.75;;;;;;;-145.42;100.00;56955.94;2542075;31;2005195;-48
2021/09/30 13:52:03;;;;;;;5.00;0.77;;;;;;;-145.42;100.00;56955.94;2541996;36;2005020;-53
2021/09/30 13:55:29;;;;;;;3.60;0.95;;;;;;;-145.42;100.00;56955.94;2578198;36;2004342;-52
2021/09/30 13:58:55;;;;;;;3.80;0.70;;;;;;;-145.42;100.00;56955.94;2542278;31;2004972;-47
2021/09/30 14:02:42;;;;;;;3.58;0.80;;;;;;;-145.42;100.00;56955.94;2506249;36;2005061;-48
2021/09/30 14:06:09;;;;;;;2.70;0.70;;;;;;;-145.42;100.00;56955.94;2543279;31;2005065;-46
2021/09/30 14:09:36;;;;;;;2.70;0.90;;;;;;;-145.42;100.00;56955.94;2542257;36;2004993;-46
2021/09/30 14:13:03;;;;;;;6.30;0.88;;;;;;;-145.42;100.00;56955.94;2542498;31;2005064;-45
2021/09/30 14:16:28;;;;;;;4.03;1.08;;;;;;;-145.42;100.00;56955.94;2581213;31;2004527;-45
2021/09/30 14:19:54;;;;;;;3.85;0.98;;;;;;;-145.42;100.00;56955.94;2543461;36;2004721;-44
2021/09/30 14:23:25;;;;;;;3.28;0.95;;;;;;;-145.42;100.00;56955.94;2543870;31;2004955;-46
2021/09/30 14:26:51;;;;;;;2.40;0.82;;;;;;;-145.42;100.00;56955.94;2543382;36;2005160;-45
2021/09/30 14:30:17;;;;;;;3.42;0.93;;;;;;;-145.42;100.00;56955.94;2542922;31;2005072;-45
2021/09/30 14:34:02;;;;;;;2.10;0.82;;;;;;;-145.42;100.00;56955.94;2506385;31;2005556;-47
2021/09/30 14:37:28;;;;;;;6.47;1.13;;;;;;;-145.42;100.00;56955.94;2578344;36;2004573;-49
2021/09/30 14:40:56;;;;;;;3.70;0.73;;;;;;;-145.42;100.00;56955.94;2542136;36;2005023;-45
2021/09/30 14:44:24;;;;;;;3.50;0.88;;;;;;;-145.42;100.00;56955.94;2542561;31;2005096;-45
2021/09/30 14:47:51;;;;;;;2.30;0.88;;;;;;;-145.42;100.00;56955.94;2542094;36;2004788;-45
2021/09/30 14:51:16;;;;;;;1.70;0.65;;;;;;;-145.42;100.00;56955.94;2542347;36;2004755;-47
2021/09/30 14:54:42;;;;;;;5.47;0.90;;;;;;;-145.42;100.00;56955.94;2543472;31;2005033;-48
2021/09/30 14:58:08;;;;;;;2.70;0.68;;;;;;;-145.42;100.00;56955.94;2542932;36;2005030;-46
2021/09/30 15:01:34;;;;;;;5.63;0.85;;;;;;;-145.42;100.00;56955.94;2542737;36;2004916;-45
2021/09/30 15:04:59;;;;;;;3.80;1.00;;;;;;;-145.42;100.00;56955.94;2579829;31;2004387;-45
2021/09/30 15:08:25;;;;;;;5.00;0.85;;;;;;;-145.42;100.00;56955.94;2544403;31;2004942;-50
2021/09/30 15:11:51;;;;;;;2.78;0.88;;;;;;;-145.42;100.00;56955.94;2543697;31;2004398;-44
2021/09/30 15:15:17;;;;;;;2.58;0.95;;;;;;;-145.42;100.00;56955.94;2543061;31;2004792;-45
2021/09/30 15:22:08;;;;;;;6.00;0.70;;;;;;;-145.42;100.00;56955.94;2543375;31;2004967;-46
2021/09/30 15:25:37;;;;;;;4.22;1.27;;;;;;;-145.42;100.00;56955.94;2544279;36;2004407;-53
2021/09/30 15:29:04;;;;;;;2.88;1.02;;;;;;;-145.42;100.00;56955.94;2543117;36;2005073;-48
2021/09/30 15:32:30;;;;;;;4.72;0.80;;;;;;;-145.42;100.00;56955.94;2579270;36;2004397;-46
2021/09/30 15:35:56;;;;;;;2.92;0.80;;;;;;;-145.42;100.00;56955.94;2545045;31;2005004;-46
2021/09/30 15:39:22;;;;;;;2.45;0.75;;;;;;;-145.42;100.00;56955.94;2543645;31;2004805;-47
2021/09/30 15:42:48;;;;;;;3.25;1.27;;;;;;;-145.42;100.00;56955.94;2544543;31;2004741;-46
2021/09/30 15:46:14;;;;;;;4.90;0.90;;;;;;;-145.42;100.00;56955.94;2542265;31;2005073;-53
2021/09/30 15:49:40;;;;;;;6.63;1.00;;;;;;;-145.42;100.00;56955.94;2543894;36;2005089;-46
2021/09/30 15:53:06;;;;;;;3.88;0.95;;;;;;;-145.42;100.00;56955.94;2543000;36;2005072;-46
2021/09/30 15:56:32;;;;;;;3.58;1.13;;;;;;;-145.42;100.00;56955.94;2543918;36;2004816;-43
2021/09/30 15:59:57;;;;;;;5.25;1.38;;;;;;;-145.42;100.00;56955.94;2543424;36;2004968;-50
2021/09/30 16:03:23;;;;;;;4.00;1.10;;;;;;;-145.42;100.00;56955.94;2543672;31;2005021;-46
2021/09/30 16:06:48;;;;;;;5.82;1.10;;;;;;;-145.42;100.00;56955.94;2542782;31;2004935;-48
2021/09/30 16:10:14;;;;;;;4.38;1.27;;;;;;;-145.42;100.00;56955.94;2542404;31;2004962;-48
2021/09/30 16:13:41;;;;;;;5.10;1.08;;;;;;;-145.42;100.00;56955.94;2542175;31;2005154;-47
2021/09/30 16:17:07;;;;;;;2.53;0.80;;;;;;;-145.42;100.00;56955.94;2542808;36;2005944;-48
2021/09/30 16:20:33;;;;;;;6.18;1.20;;;;;;;-145.42;100.00;56955.94;2543792;31;2004253;-45
2021/09/30 16:23:59;;;;;;;4.15;1.33;;;;;;;-145.42;100.00;56955.94;2544090;31;2004678;-50
2021/09/30 16:27:28;;;;;;;2.35;1.00;;;;;;;-145.42;100.00;56955.94;2545347;31;2004938;-41
2021/09/30 16:30:54;;;;;;;5.05;0.82;;;;;;;-145.42;100.00;56955.94;2544072;31;2004293;-43
2021/09/30 16:34:25;;;;;;;1.98;0.85;;;;;;;-145.42;100.00;56955.94;2544210;31;2005104;-45
2021/09/30 16:37:51;;;;;;;2.33;1.10;;;;;;;-145.42;100.00;56955.94;2544844;31;2004935;-44
2021/09/30 16:41:18;;;;;;;4.28;0.98;;;;;;;-145.42;100.00;56955.94;2543222;36;2005606;-42
2021/09/30 16:44:43;;;;;;;5.55;1.42;;;;;;;-145.42;100.00;56955.94;2543163;36;2005250;-48
2021/09/30 16:48:10;;;;;;;2.25;1.15;;;;;;;-145.42;100.00;56955.94;2543090;36;2004983;-44
2021/09/30 16:51:36;;;;;;;1.98;1.20;;;;;;;-145.42;100.00;56955.94;2543284;36;2005047;-43
2021/09/30 16:55:02;;;;;;;4.82;1.67;;;;;;;-145.42;100.00;56955.94;2543286;36;2004184;-47
2021/09/30 16:58:28;;;;;;;4.40;1.00;;;;;;;-145.42;100.00;56955.94;2544251;31;2004742;-45
2021/09/30 17:01:58;;;;;;;3.83;1.15;;;;;;;-145.42;100.00;56955.94;2544851;31;2004385;-44
2021/09/30 17:05:24;;;;;;;4.97;2.00;;;;;;;-145.42;100.00;56955.94;2543813;36;2005336;-43
2021/09/30 17:08:50;;;;;;;5.38;1.48;;;;;;;-145.42;100.00;56955.94;2543311;31;2005133;-47
2021/09/30 17:12:16;;;;;;;4.32;1.52;;;;;;;-145.42;100.00;56955.94;2543554;36;2004409;-47
2021/09/30 17:15:42;;;;;;;4.90;1.40;;;;;;;-145.42;100.00;56955.94;2543234;36;2004764;-47
2021/09/30 17:19:08;;;;;;;3.65;1.20;;;;;;;-145.42;100.00;56955.94;2543793;31;2004959;-43
2021/09/30 17:22:33;;;;;;;4.43;1.60;;;;;;;-145.42;100.00;56955.94;2580521;31;2004756;-46
2021/09/30 17:25:59;;;;;;;4.40;1.35;;;;;;;-145.42;100.00;56955.94;2543902;31;2005856;-44
2021/09/30 17:29:27;;;;;;;4.07;1.27;;;;;;;-145.42;100.00;56955.94;2543400;36;2004985;-45
2021/09/30 17:32:53;;;;;;;2.75;1.70;;;;;;;-145.42;100.00;56955.94;2549491;36;2004321;-56
2021/09/30 17:36:22;;;;;;;4.50;2.25;;;;;;;-145.42;100.00;56955.94;2551765;31;2004768;-46
2021/09/30 17:39:48;;;;;;;5.13;2.30;;;;;;;-145.42;100.00;56955.94;2544520;36;2005073;-43
2021/09/30 17:43:14;;;;;;;5.53;2.00;;;;;;;-145.42;100.00;56955.94;2543482;36;2004395;-45
2021/09/30 17:46:40;;;;;;;4.43;1.80;;;;;;;-145.42;100.00;56955.94;2543482;36;2004818;-45
2021/09/30 17:50:07;;;;;;;3.95;1.73;;;;;;;-145.42;100.00;56955.94;2543665;36;2004876;-46
2021/09/30 17:53:33;;;;;;;3.80;2.00;;;;;;;-145.42;100.00;56955.94;2543798;31;2005134;-45
2021/09/30 17:56:59;;;;;;;3.72;1.23;;;;;;;-145.42;100.00;56955.94;2543112;36;2004936;-44
2021/09/30 18:00:26;;;;;;;8.70;2.42;;;;;;;-145.42;100.00;56955.94;2543699;36;2005117;-47
2021/09/30 18:03:54;;;;;;;6.45;2.13;;;;;;;-145.42;100.00;56955.94;2543192;36;2005095;-47
2021/09/30 18:07:20;;;;;;;6.03;1.90;;;;;;;-145.42;100.00;56955.94;2543837;36;2005045;-49
2021/09/30 18:10:46;;;;;;;4.88;2.13;;;;;;;-145.42;100.00;56955.94;2543254;36;2004977;-48
2021/09/30 18:14:11;;;;;;;7.50;2.25;;;;;;;-145.42;100.00;56955.94;2543684;31;2004929;-45
2021/09/30 18:17:37;;;;;;;3.85;3.20;;;;;;;-145.42;100.00;56955.94;2543870;31;2004801;-45
2021/09/30 18:21:15;;;;;;;4.03;3.38;;;;;;;-145.42;100.00;56955.94;2543141;36;2004792;-45
2021/09/30 18:28:07;;;;;;;7.20;2.40;;;;;;;-145.42;100.00;56955.94;2543791;31;2004988;-46
2021/09/30 18:31:34;;;;;;;5.65;2.17;;;;;;;-145.42;100.00;56955.94;2580579;31;2004793;-45
2021/09/30 18:34:59;;;;;;;4.97;2.25;;;;;;;-145.42;100.00;56955.94;2544089;31;2004840;-45
2021/09/30 18:38:27;;;;;;;5.50;2.42;;;;;;;-145.42;100.00;56955.94;2543375;36;2005072;-49
2021/09/30 18:41:54;;;;;;;4.28;1.90;;;;;;;-145.42;100.00;56955.94;2543434;31;2005265;-49
2021/09/30 18:45:22;;;;;;;6.30;2.92;;;;;;;-145.42;100.00;56955.94;2543086;36;2005031;-45
2021/09/30 18:48:49;;;;;;;6.18;4.55;;;;;;;-145.42;100.00;56955.94;2543264;31;2004425;-48
2021/09/30 18:52:16;;;;;;;12.27;6.97;;;;;;;-145.42;100.00;56955.94;2542196;36;2005099;-46
2021/09/30 18:55:41;;;;;;;10.48;6.82;;;;;;;-145.42;100.00;56955.94;2543046;36;2004744;-48
2021/09/30 18:59:07;;;;;;;7.82;5.70;;;;;;;-145.42;100.00;56955.94;2543899;36;2004937;-44
2021/09/30 19:02:33;;;;;;;7.65;5.10;;;;;;;-145.42;100.00;56955.94;2544659;31;2005092;-49
2021/09/30 19:05:59;;;;;;;8.10;4.07;;;;;;;-145.42;100.00;56955.94;2543986;36;2004919;-48
2021/09/30 19:09:27;;;;;;;7.03;3.90;;;;;;;-145.42;100.00;56955.94;2543256;36;2005078;-45
2021/09/30 19:12:52;;;;;;;7.20;3.30;;;;;;;-145.42;100.00;56955.94;2543620;36;2004968;-51
2021/09/30 19:16:18;;;;;;;9.60;3.78;;;;;;;-145.42;100.00;56955.94;2542538;36;2004827;-48
2021/09/30 19:19:44;;;;;;;6.28;3.95;;;;;;;-145.42;100.00;56955.94;2543425;36;2004831;-48
2021/09/30 19:23:10;;;;;;;6.63;3.97;;;;;;;-145.42;100.00;56955.94;2543046;36;2004929;-44
2021/09/30 19:26:35;;;;;;;5.15;3.25;;;;;;;-145.42;100.00;56955.94;2579748;31;2004586;-46
2021/09/30 19:30:03;;;;;;;6.93;3.42;;;;;;;-145.42;100.00;56955.94;2544211;31;2005285;-47
2021/09/30 19:33:28;;;;;;;3.47;3.17;;;;;;;-145.42;100.00;56955.94;2545523;31;2004815;-51
2021/09/30 19:36:54;;;;;;;6.05;2.95;;;;;;;-145.42;100.00;56955.94;2543594;36;2004788;-45
2021/09/30 19:40:23;;;;;;;6.75;3.30;;;;;;;-145.42;100.00;56955.94;2543976;31;2004562;-46
2021/09/30 19:43:48;;;;;;;;;;;;;;;-145.42;100.00;56955.94;2543234;36;2005012;-48
2021/09/30 19:47:14;;;;;;;7.88;2.85;;;;;;;-145.42;100.00;56955.94;2543194;36;2004914;-46
2021/09/30 19:50:40;;;;;;;4.55;3.22;;;;;;;-145.42;100.00;56955.94;2543180;36;2004992;-50
2021/09/30 19:54:06;;;;;;;13.98;3.40;;;;;;;-145.42;100.00;56955.94;2543087;31;2004899;-47
2021/09/30 19:57:32;;;;;;;4.20;3.20;;;;;;;-145.42;100.00;56955.94;2543482;31;2005166;-47
2021/09/30 20:01:02;;;;;;;6.13;3.33;;;;;;;-145.42;100.00;56955.94;2543085;31;2004367;-50
2021/09/30 20:04:29;;;;;;;7.72;4.53;;;;;;;-145.42;100.00;56955.94;2542956;36;2004894;-48
2021/09/30 20:07:54;;;;;;;8.98;5.72;;;;;;;-145.42;100.00;56955.94;2543810;31;2004889;-46
2021/09/30 20:11:20;;;;;;;7.60;4.25;;;;;;;-145.42;100.00;56955.94;2542887;36;2004958;-49
2021/09/30 20:14:47;;;;;;;10.40;4.43;;;;;;;-145.42;100.00;56955.94;2542682;36;2004926;-47
2021/09/30 20:18:13;;;;;;;5.28;4.22;;;;;;;-145.42;100.00;56955.94;2543548;31;2004948;-46
2021/09/30 20:21:39;;;;;;;7.18;4.50;;;;;;;-145.42;100.00;56955.94;2543301;31;2004962;-47
2021/09/30 20:25:09;;;;;;;9.23;4.22;;;;;;;-145.42;100.00;56955.94;2541417;36;2004927;-47
2021/09/30 20:28:36;;;;;;;9.85;4.90;;;;;;;-145.42;100.00;56955.94;2578543;36;2004471;-47
2021/09/30 20:32:07;;;;;;;7.00;5.13;;;;;;;-145.42;100.00;56955.94;2507843;31;2005025;-50
2021/09/30 20:35:33;;;;;;;8.05;4.25;;;;;;;-145.42;100.00;56955.94;2543445;31;2004937;-48
2021/09/30 20:38:59;;;;;;;8.10;4.75;;;;;;;-145.42;100.00;56955.94;2544182;36;2004992;-46
2021/09/30 20:42:24;;;;;;;6.93;4.50;;;;;;;-145.42;100.00;56955.94;2543415;31;2004821;-47
2021/09/30 20:45:52;;;;;;;13.00;4.18;;;;;;;-145.42;100.00;56955.94;2544705;31;2005073;-46
2021/09/30 20:49:18;;;;;;;8.48;4.18;;;;;;;-145.42;100.00;56955.94;2544587;36;2005062;-47
2021/09/30 20:52:43;;;;;;;8.40;3.88;;;;;;;-145.42;100.00;56955.94;2543386;31;2004366;-44
2021/09/30 20:56:09;;;;;;;6.80;4.18;;;;;;;-145.42;100.00;56955.94;2543707;36;2005042;-47
2021/09/30 20:59:39;;;;;;;5.03;4.00;;;;;;;-145.42;100.00;56955.94;2581512;31;2005022;-46
2021/09/30 21:03:05;;;;;;;10.15;4.10;;;;;;;-145.42;100.00;56955.94;2508046;36;2005032;-45
2021/09/30 21:06:31;;;;;;;9.75;4.95;;;;;;;-145.42;100.00;56955.94;2543934;31;2004898;-45
2021/09/30 21:09:57;;;;;;;7.95;4.50;;;;;;;-145.42;100.00;56955.94;2543984;31;2004801;-45
2021/09/30 21:13:23;;;;;;;9.20;4.85;;;;;;;-145.42;100.00;56955.94;2543895;36;2004892;-48
2021/09/30 21:16:49;;;;;;;7.00;3.70;;;;;;;-145.42;100.00;56955.94;2544431;31;2005218;-47
2021/09/30 21:20:14;;;;;;;9.30;4.00;;;;;;;-145.42;100.00;56955.94;2543826;36;2004899;-48
2021/09/30 21:23:40;;;;;;;8.30;3.70;;;;;;;-145.42;100.00;56955.94;2543970;36;2004933;-49
2021/09/30 21:27:06;;;;;;;7.50;3.97;;;;;;;-145.42;100.00;56955.94;2544951;31;2004945;-46
2021/09/30 21:30:32;;;;;;;4.65;3.42;;;;;;;-145.42;100.00;56955.94;2549169;36;2005233;-49
2021/09/30 21:33:57;;;;;;;8.32;4.13;;;;;;;-145.42;100.00;56955.94;2550486;31;2004926;-44
2021/09/30 21:37:23;;;;;;;6.50;3.40;;;;;;;-145.42;100.00;56955.94;2546010;31;2004970;-45
2021/09/30 21:40:49;;;;;;;7.53;4.15;;;;;;;-145.42;100.00;56955.94;2544471;31;2004755;-46
2021/09/30 21:44:15;;;;;;;5.78;4.10;;;;;;;-145.42;100.00;56955.94;2543978;36;2005094;-47
2021/09/30 21:47:44;;;;;;;5.45;3.35;;;;;;;-145.42;100.00;56955.94;2544076;36;2004795;-46
2021/09/30 21:51:11;;;;;;;9.75;3.95;;;;;;;-145.42;100.00;56955.94;2543647;36;2005135;-47
2021/09/30 21:54:36;;;;;;;8.35;3.25;;;;;;;-145.42;100.00;56955.94;2544437;31;2005000;-48
2021/09/30 21:58:02;;;;;;;8.18;3.92;;;;;;;-145.42;100.00;56955.94;2544275;36;2005120;-46
2021/09/30 22:01:42;;;;;;;5.68;3.60;;;;;;;-145.42;100.00;56955.94;2543655;36;2004903;-48
2021/09/30 22:05:08;;;;;;;7.07;3.38;;;;;;;-145.42;100.00;56955.94;2507167;36;2005324;-50
2021/09/30 22:08:34;;;;;;;8.43;3.92;;;;;;;-145.42;100.00;56955.94;2579569;36;2004397;-46